Time;durP1;ratioP1;P1;durP2;ratioP2;P2;SDS_P1;SDS_P2;PMS_P1;PMS_P2;Temp;Humidity;BMP_temperature;BMP_pressure;BME280_temperature;BME280_humidity;BME280_pressure;Samples;Min_cycle;Max_cycle;Signal;HPM_P1;HPM_P2
2022/05/23 00:00:37;0.00;0.00;0.62;0.00;0.00;0.62;1.57;0.80;;;28.70;26.10;;;;;;2243602;61;20372;-58
2022/05/23 00:03:23;0.00;0.00;0.62;0.00;0.00;0.62;1.40;0.70;;;28.70;26.10;;;;;;2244017;61;20825;-59
2022/05/23 00:06:08;0.00;0.00;0.62;0.00;0.00;0.62;1.40;0.90;;;28.70;26.20;;;;;;2243526;61;20388;-60
2022/05/23 00:08:53;0.00;0.00;0.62;0.00;0.00;0.62;2.37;0.80;;;28.70;26.20;;;;;;2243919;61;21024;-61
2022/05/23 00:11:38;0.00;0.00;0.62;0.00;0.00;0.62;1.30;0.70;;;28.70;26.10;;;;;;2243335;61;20956;-61
2022/05/23 00:14:24;0.00;0.00;0.62;0.00;0.00;0.62;1.53;0.87;;;28.70;26.70;;;;;;2243454;61;20372;-61
2022/05/23 00:17:11;0.00;0.00;0.62;0.00;0.00;0.62;1.40;0.90;;;28.70;26.00;;;;;;2244061;61;20798;-60
2022/05/23 00:19:55;0.00;0.00;0.62;0.00;0.00;0.62;1.30;0.80;;;28.70;26.00;;;;;;2243545;61;20416;-58
2022/05/23 00:22:41;0.00;0.00;0.62;0.00;0.00;0.62;1.60;1.03;;;28.70;26.00;;;;;;2243664;61;20448;-57
2022/05/23 00:25:26;0.00;0.00;0.62;0.00;0.00;0.62;1.50;0.90;;;28.70;26.00;;;;;;2244404;61;20404;-59
2022/05/23 00:28:12;0.00;0.00;0.62;0.00;0.00;0.62;1.47;0.80;;;28.70;26.00;;;;;;2244347;61;20392;-60
2022/05/23 00:30:58;0.00;0.00;0.62;0.00;0.00;0.62;1.37;0.80;;;28.70;26.00;;;;;;2249203;61;20372;-60
2022/05/23 00:36:47;0.00;0.00;0.62;0.00;0.00;0.62;1.37;0.77;;;28.80;26.10;;;;;;2244342;61;20391;-60
2022/05/23 00:39:31;0.00;0.00;0.62;0.00;0.00;0.62;1.70;0.93;;;28.70;26.00;;;;;;2244523;61;20380;-59
2022/05/23 00:45:25;0.00;0.00;0.62;0.00;0.00;0.62;1.63;0.80;;;28.80;26.10;;;;;;2246745;61;20400;-61
2022/05/23 00:48:14;0.00;0.00;0.62;0.00;0.00;0.62;1.30;0.77;;;28.70;26.10;;;;;;2244466;61;20395;-64
2022/05/23 00:51:03;0.00;0.00;0.62;0.00;0.00;0.62;1.47;0.80;;;28.70;26.10;;;;;;2243582;61;20504;-64
2022/05/23 00:53:51;0.00;0.00;0.62;0.00;0.00;0.62;1.80;1.07;;;28.70;26.10;;;;;;2244537;61;20888;-67
2022/05/23 00:56:44;0.00;0.00;0.62;0.00;0.00;0.62;1.60;0.80;;;28.80;26.10;;;;;;2244109;61;20770;-65
2022/05/23 00:59:32;0.00;0.00;0.62;0.00;0.00;0.62;1.60;0.90;;;28.70;26.10;;;;;;2244334;61;20835;-64
2022/05/23 01:02:19;0.00;0.00;0.62;0.00;0.00;0.62;1.90;0.93;;;28.80;26.10;;;;;;2244043;61;20368;-66
2022/05/23 01:05:08;0.00;0.00;0.62;0.00;0.00;0.62;1.20;0.80;;;28.80;26.10;;;;;;2244418;61;20372;-65
2022/05/23 01:07:53;0.00;0.00;0.62;0.00;0.00;0.62;1.40;0.80;;;28.80;26.00;;;;;;2244493;61;20428;-66
2022/05/23 01:10:39;0.00;0.00;0.62;0.00;0.00;0.62;1.53;0.90;;;28.80;26.00;;;;;;2246068;61;20505;-66
2022/05/23 01:13:25;0.00;0.00;0.62;0.00;0.00;0.62;2.73;1.00;;;28.70;25.90;;;;;;2243848;61;20373;-64
2022/05/23 01:16:11;0.00;0.00;0.62;0.00;0.00;0.62;1.70;1.00;;;28.80;25.90;;;;;;2244468;61;20389;-66
2022/05/23 01:19:00;0.00;0.00;0.62;0.00;0.00;0.62;1.30;0.70;;;28.80;25.90;;;;;;2243357;61;20416;-64
2022/05/23 01:21:59;0.00;0.00;0.62;0.00;0.00;0.62;1.53;0.90;;;28.80;25.90;;;;;;2246212;61;20461;-65
2022/05/23 01:25:01;0.00;0.00;0.62;0.00;0.00;0.62;1.77;1.00;;;28.80;25.80;;;;;;2246429;61;20932;-66
2022/05/23 01:27:50;0.00;0.00;0.62;0.00;0.00;0.62;1.67;1.00;;;28.80;25.80;;;;;;2249241;61;20397;-66
2022/05/23 01:30:36;0.00;0.00;0.62;0.00;0.00;0.62;1.70;1.20;;;28.80;25.80;;;;;;2246404;61;20373;-65
2022/05/23 01:33:32;0.00;0.00;0.62;0.00;0.00;0.62;2.00;1.20;;;28.80;25.80;;;;;;2246229;61;20449;-66
2022/05/23 01:36:17;0.00;0.00;0.62;0.00;0.00;0.62;1.50;1.00;;;28.70;25.70;;;;;;2246419;61;20389;-64
2022/05/23 01:39:02;0.00;0.00;0.62;0.00;0.00;0.62;1.77;1.13;;;28.80;25.70;;;;;;2249719;61;20369;-65
2022/05/23 01:41:47;0.00;0.00;0.62;0.00;0.00;0.62;1.83;1.03;;;28.80;25.70;;;;;;2243343;61;20368;-65
2022/05/23 01:44:34;0.00;0.00;0.62;0.00;0.00;0.62;1.70;1.00;;;28.70;25.70;;;;;;2249427;61;20897;-64
2022/05/23 01:47:39;0.00;0.00;0.62;0.00;0.00;0.62;1.80;1.00;;;28.80;25.70;;;;;;2244147;61;20428;-64
2022/05/23 01:50:25;0.00;0.00;0.62;0.00;0.00;0.62;1.40;0.80;;;28.80;25.70;;;;;;2243567;61;20436;-65
2022/05/23 01:53:12;0.00;0.00;0.62;0.00;0.00;0.62;1.90;1.10;;;28.80;25.70;;;;;;2244814;61;20428;-64
2022/05/23 01:56:05;0.00;0.00;0.62;0.00;0.00;0.62;1.47;0.93;;;28.80;25.70;;;;;;2249051;61;20485;-68
2022/05/23 02:02:09;0.00;0.00;0.62;0.00;0.00;0.62;2.27;1.30;;;28.80;26.10;;;;;;2248580;61;20411;-64
2022/05/23 02:04:57;0.00;0.00;0.62;0.00;0.00;0.62;2.37;1.10;;;28.70;25.60;;;;;;2249281;61;20886;-65
2022/05/23 02:07:42;0.00;0.00;0.62;0.00;0.00;0.62;1.90;1.13;;;28.70;25.50;;;;;;2243671;61;20388;-62
2022/05/23 02:10:28;0.00;0.00;0.62;0.00;0.00;0.62;1.67;1.20;;;28.70;25.30;;;;;;2243355;61;20398;-57
2022/05/23 02:13:13;0.00;0.00;0.62;0.00;0.00;0.62;1.90;1.20;;;28.70;25.20;;;;;;2246524;61;20481;-63
2022/05/23 02:15:58;0.00;0.00;0.62;0.00;0.00;0.62;1.70;1.30;;;28.70;25.20;;;;;;2249330;61;20480;-56
2022/05/23 02:18:58;0.00;0.00;0.62;0.00;0.00;0.62;2.60;1.33;;;28.70;25.10;;;;;;2249365;61;20408;-60
2022/05/23 02:21:43;0.00;0.00;0.62;0.00;0.00;0.62;3.80;1.47;;;28.70;24.90;;;;;;2242813;61;20829;-61
2022/05/23 02:24:28;0.00;0.00;0.62;0.00;0.00;0.62;1.60;1.23;;;28.70;24.90;;;;;;2243780;61;20372;-60
2022/05/23 02:27:12;0.00;0.00;0.62;0.00;0.00;0.62;2.77;1.60;;;28.60;24.80;;;;;;2244158;61;20481;-60
2022/05/23 02:30:02;0.00;0.00;0.62;0.00;0.00;0.62;3.10;1.67;;;28.60;24.70;;;;;;2249295;61;20400;-59
2022/05/23 02:32:48;0.00;0.00;0.62;0.00;0.00;0.62;2.57;1.57;;;28.60;24.70;;;;;;2246311;61;20372;-61
2022/05/23 02:35:36;0.00;0.00;0.62;0.00;0.00;0.62;1.93;1.57;;;28.50;24.60;;;;;;2248862;61;20427;-61
2022/05/23 02:38:20;0.00;0.00;0.62;0.00;0.00;0.62;3.17;1.70;;;28.50;24.50;;;;;;2246811;61;20431;-65
2022/05/23 02:41:05;0.00;0.00;0.62;0.00;0.00;0.62;1.80;1.43;;;28.50;24.40;;;;;;2248985;61;20368;-62
2022/05/23 02:43:53;0.00;0.00;0.62;0.00;0.00;0.62;2.70;1.97;;;28.50;24.40;;;;;;2249103;61;20372;-58
2022/05/23 02:46:42;0.00;0.00;0.62;0.00;0.00;0.62;2.27;1.40;;;28.40;24.40;;;;;;2243679;61;20984;-65
2022/05/23 02:49:32;0.00;0.00;0.62;0.00;0.00;0.62;2.77;1.60;;;28.40;24.40;;;;;;2243250;61;20489;-61
2022/05/23 02:52:19;0.00;0.00;0.62;0.00;0.00;0.62;3.27;1.67;;;28.40;24.40;;;;;;2249219;61;20368;-67
2022/05/23 02:55:18;0.00;0.00;0.62;0.00;0.00;0.62;2.17;1.83;;;28.40;24.50;;;;;;2248743;61;20443;-61
2022/05/23 02:58:03;0.00;0.00;0.62;0.00;0.00;0.62;2.37;1.43;;;28.30;24.30;;;;;;2249174;61;20391;-60
2022/05/23 03:00:52;0.00;0.00;0.62;0.00;0.00;0.62;3.40;1.97;;;28.20;24.10;;;;;;2246337;61;20368;-61
2022/05/23 03:03:39;0.00;0.00;0.62;0.00;0.00;0.62;2.80;1.93;;;28.20;24.10;;;;;;2244007;61;20461;-62
2022/05/23 03:06:23;0.00;0.00;0.62;0.00;0.00;0.62;4.13;2.70;;;28.10;24.00;;;;;;2249011;61;20393;-61
2022/05/23 03:09:11;0.00;0.00;0.62;0.00;0.00;0.62;3.37;2.10;;;28.10;24.10;;;;;;2244151;61;20380;-64
2022/05/23 03:11:56;0.00;0.00;0.62;0.00;0.00;0.62;2.60;1.90;;;28.00;23.80;;;;;;2248750;61;20377;-62
2022/05/23 03:14:44;0.00;0.00;0.62;0.00;0.00;0.62;3.00;1.50;;;27.90;24.00;;;;;;2249654;61;20525;-61
2022/05/23 03:17:31;0.00;0.00;0.62;0.00;0.00;0.62;2.93;1.60;;;27.90;24.10;;;;;;2248587;61;20368;-61
2022/05/23 03:20:17;0.00;0.00;0.62;0.00;0.00;0.62;2.47;1.77;;;27.80;24.20;;;;;;2246374;61;20432;-63
2022/05/23 03:29:11;0.00;0.00;0.62;0.00;0.00;0.62;4.13;1.80;;;27.80;24.40;;;;;;2244047;61;20447;-61
2022/05/23 03:31:57;0.00;0.00;0.62;0.00;0.00;0.62;2.50;1.80;;;27.80;24.40;;;;;;2245721;61;20432;-62
2022/05/23 03:34:42;0.00;0.00;0.62;0.00;0.00;0.62;2.63;1.80;;;27.80;24.40;;;;;;2244131;61;20473;-61
2022/05/23 03:37:27;0.00;0.00;0.62;0.00;0.00;0.62;2.00;1.57;;;27.80;24.40;;;;;;2249179;61;20838;-60
2022/05/23 03:40:13;0.00;0.00;0.62;0.00;0.00;0.62;3.53;1.93;;;27.70;24.30;;;;;;2249013;61;20452;-61
2022/05/23 03:43:09;0.00;0.00;0.62;0.00;0.00;0.62;2.60;1.40;;;27.70;24.30;;;;;;2243619;61;20364;-60
2022/05/23 03:45:53;0.00;0.00;0.62;0.00;0.00;0.62;3.60;2.20;;;27.70;24.30;;;;;;2243601;61;20854;-61
2022/05/23 03:48:40;0.00;0.00;0.62;0.00;0.00;0.62;2.83;1.97;;;27.70;24.30;;;;;;2249072;61;20388;-61
2022/05/23 03:51:24;0.00;0.00;0.62;0.00;0.00;0.62;3.53;2.00;;;27.70;24.30;;;;;;2243204;61;20396;-62
2022/05/23 03:54:10;0.00;0.00;0.62;0.00;0.00;0.62;3.17;2.27;;;27.70;24.30;;;;;;2248739;61;20376;-61
2022/05/23 03:56:58;0.00;0.00;0.62;0.00;0.00;0.62;4.17;1.93;;;27.60;24.30;;;;;;2248942;61;20396;-60
2022/05/23 03:59:47;0.00;0.00;0.62;0.00;0.00;0.62;3.67;2.00;;;27.60;24.30;;;;;;2249209;61;20816;-63
2022/05/23 04:02:33;0.00;0.00;0.62;0.00;0.00;0.62;3.60;1.60;;;27.50;24.30;;;;;;2243589;61;20369;-62
2022/05/23 04:05:18;0.00;0.00;0.62;0.00;0.00;0.62;3.00;2.10;;;27.50;24.30;;;;;;2243548;61;20476;-61
2022/05/23 04:08:26;0.00;0.00;0.62;0.00;0.00;0.62;3.60;1.60;;;27.50;24.30;;;;;;2248858;61;20487;-64
2022/05/23 04:11:14;0.00;0.00;0.62;0.00;0.00;0.62;3.10;2.10;;;27.50;24.30;;;;;;2245858;61;20420;-61
2022/05/23 04:13:58;0.00;0.00;0.62;0.00;0.00;0.62;3.27;1.60;;;27.50;24.30;;;;;;2246058;61;20403;-62
2022/05/23 04:16:46;0.00;0.00;0.62;0.00;0.00;0.62;3.00;1.87;;;27.50;24.30;;;;;;2248624;61;21011;-62
2022/05/23 04:19:31;0.00;0.00;0.62;0.00;0.00;0.62;2.20;2.00;;;27.50;24.40;;;;;;2248731;61;20369;-60
2022/05/23 04:22:34;0.00;0.00;0.62;0.00;0.00;0.62;3.60;2.10;;;27.50;24.30;;;;;;2248375;61;21219;-61
2022/05/23 04:25:22;0.00;0.00;0.62;0.00;0.00;0.62;2.20;1.70;;;27.40;24.30;;;;;;2243449;61;20968;-62
2022/05/23 04:28:07;0.00;0.00;0.62;0.00;0.00;0.62;2.73;1.97;;;27.40;24.30;;;;;;2248784;61;20408;-62
2022/05/23 04:30:52;0.00;0.00;0.62;0.00;0.00;0.62;2.20;1.70;;;27.40;24.40;;;;;;2245835;61;20361;-62
2022/05/23 04:36:47;0.00;0.00;0.62;0.00;0.00;0.62;6.67;2.33;;;27.40;24.30;;;;;;2246149;61;20392;-61
2022/05/23 04:39:38;0.00;0.00;0.62;0.00;0.00;0.62;2.17;1.67;;;27.30;24.20;;;;;;2249094;61;20361;-63
2022/05/23 04:42:23;0.00;0.00;0.62;0.00;0.00;0.62;2.87;1.70;;;27.30;24.20;;;;;;2242995;61;20423;-62
2022/05/23 04:45:09;0.00;0.00;0.62;0.00;0.00;0.62;2.37;1.70;;;27.30;24.20;;;;;;2247317;61;20395;-59
2022/05/23 04:51:07;0.00;0.00;0.62;0.00;0.00;0.62;3.00;1.87;;;27.30;24.40;;;;;;2250033;61;20383;-62
2022/05/23 04:54:00;0.00;0.00;0.62;0.00;0.00;0.62;2.20;1.60;;;27.20;24.10;;;;;;2247020;61;20912;-62
2022/05/23 04:56:45;0.00;0.00;0.62;0.00;0.00;0.62;3.50;1.93;;;27.20;24.20;;;;;;2247036;61;20404;-60
2022/05/23 04:59:36;0.00;0.00;0.62;0.00;0.00;0.62;5.20;2.03;;;27.20;24.10;;;;;;2247508;61;20356;-61
2022/05/23 05:02:22;0.00;0.00;0.62;0.00;0.00;0.62;2.00;1.50;;;27.20;24.20;;;;;;2246737;61;20451;-62
2022/05/23 05:05:12;0.00;0.00;0.62;0.00;0.00;0.62;1.90;1.50;;;27.20;24.20;;;;;;2247339;61;20442;-62
2022/05/23 05:08:10;0.00;0.00;0.62;0.00;0.00;0.62;2.93;2.17;;;27.10;24.20;;;;;;2246917;61;20915;-61
2022/05/23 05:10:57;0.00;0.00;0.62;0.00;0.00;0.62;3.90;2.10;;;27.10;24.20;;;;;;2247381;61;20376;-65
2022/05/23 05:13:45;0.00;0.00;0.62;0.00;0.00;0.62;3.03;2.10;;;27.10;24.30;;;;;;2248408;61;20406;-63
2022/05/23 05:16:32;0.00;0.00;0.62;0.00;0.00;0.62;2.20;1.83;;;27.10;24.30;;;;;;2247532;61;20801;-63
2022/05/23 05:19:19;0.00;0.00;0.62;0.00;0.00;0.62;3.40;2.20;;;27.10;24.30;;;;;;2247769;61;20371;-60
2022/05/23 05:22:10;0.00;0.00;0.62;0.00;0.00;0.62;2.87;1.47;;;27.00;24.20;;;;;;2247864;61;20454;-67
2022/05/23 05:25:18;0.00;0.00;0.62;0.00;0.00;0.62;2.60;1.73;;;27.00;24.20;;;;;;2248251;61;20387;-63
2022/05/23 05:28:14;0.00;0.00;0.62;0.00;0.00;0.62;2.77;1.83;;;27.00;24.20;;;;;;2248383;61;20441;-62
2022/05/23 05:31:06;0.00;0.00;0.62;0.00;0.00;0.62;3.77;1.97;;;27.00;24.20;;;;;;2247051;61;20772;-62
2022/05/23 05:34:04;0.00;0.00;0.62;0.00;0.00;0.62;2.13;1.80;;;27.00;24.20;;;;;;2248133;61;20884;-63
2022/05/23 05:36:59;0.00;0.00;0.62;0.00;0.00;0.62;3.70;2.00;;;27.00;24.20;;;;;;2247948;61;20826;-62
2022/05/23 05:39:47;0.00;0.00;0.62;0.00;0.00;0.62;2.20;1.67;;;27.00;24.20;;;;;;2248350;61;20948;-62
2022/05/23 05:42:40;0.00;0.00;0.62;0.00;0.00;0.62;1.90;1.60;;;27.00;24.20;;;;;;2246759;61;20367;-60
2022/05/23 05:45:31;0.00;0.00;0.62;0.00;0.00;0.62;2.97;2.20;;;26.90;24.20;;;;;;2243410;61;20452;-60
2022/05/23 05:48:27;0.00;0.00;0.62;0.00;0.00;0.62;2.60;2.07;;;26.90;24.30;;;;;;2246954;61;20397;-57
2022/05/23 05:51:15;0.00;0.00;0.62;0.00;0.00;0.62;2.37;1.60;;;26.90;24.20;;;;;;2243105;61;20368;-56
2022/05/23 05:54:24;0.00;0.00;0.62;0.00;0.00;0.62;2.30;1.73;;;26.90;24.20;;;;;;2244384;61;20396;-54
2022/05/23 05:57:19;0.00;0.00;0.62;0.00;0.00;0.62;2.73;1.60;;;26.80;24.20;;;;;;2249798;61;20808;-59
2022/05/23 06:00:09;0.00;0.00;0.62;0.00;0.00;0.62;2.40;1.60;;;26.90;24.30;;;;;;2243373;61;20416;-56
2022/05/23 06:03:01;0.00;0.00;0.62;0.00;0.00;0.62;2.10;1.63;;;26.90;24.40;;;;;;2244298;61;20376;-60
2022/05/23 06:12:10;0.00;0.00;0.62;0.00;0.00;0.62;3.30;1.80;;;26.90;24.50;;;;;;2249254;61;20360;-58
2022/05/23 06:14:57;0.00;0.00;0.62;0.00;0.00;0.62;3.80;2.10;;;26.90;24.50;;;;;;2246019;61;20368;-58
2022/05/23 06:17:46;0.00;0.00;0.62;0.00;0.00;0.62;2.20;1.60;;;26.90;24.50;;;;;;2249287;61;20868;-60
2022/05/23 06:20:30;0.00;0.00;0.62;0.00;0.00;0.62;2.20;1.50;;;26.90;24.60;;;;;;2248796;61;20818;-61
2022/05/23 06:23:16;0.00;0.00;0.62;0.00;0.00;0.62;3.10;1.80;;;26.90;24.60;;;;;;2249067;61;20461;-56
2022/05/23 06:26:09;0.00;0.00;0.62;0.00;0.00;0.62;2.83;1.90;;;26.90;24.60;;;;;;2248621;61;20443;-63
2022/05/23 06:29:12;0.00;0.00;0.62;0.00;0.00;0.62;2.90;1.90;;;26.90;24.60;;;;;;2244176;61;20436;-60
2022/05/23 06:31:57;0.00;0.00;0.62;0.00;0.00;0.62;2.73;1.93;;;26.80;24.60;;;;;;2248793;61;20528;-59
2022/05/23 06:34:45;0.00;0.00;0.62;0.00;0.00;0.62;4.47;1.87;;;26.90;24.70;;;;;;2250417;61;20373;-62
2022/05/23 06:37:30;0.00;0.00;0.62;0.00;0.00;0.62;3.80;1.93;;;26.80;24.60;;;;;;2246937;61;20368;-64
2022/05/23 06:40:27;0.00;0.00;0.62;0.00;0.00;0.62;3.10;1.93;;;26.80;24.60;;;;;;2250260;61;20360;-57
2022/05/23 06:43:19;0.00;0.00;0.62;0.00;0.00;0.62;3.47;2.40;;;26.80;24.60;;;;;;2244047;61;20451;-62
2022/05/23 06:46:29;0.00;0.00;0.62;0.00;0.00;0.62;3.03;1.80;;;26.80;24.60;;;;;;2244400;61;20403;-58
2022/05/23 06:49:33;0.00;0.00;0.62;0.00;0.00;0.62;2.53;1.57;;;26.80;24.70;;;;;;2244760;61;20392;-55
2022/05/23 06:52:23;0.00;0.00;0.62;0.00;0.00;0.62;3.17;2.20;;;26.70;24.70;;;;;;2243397;61;20416;-59
2022/05/23 06:55:16;0.00;0.00;0.62;0.00;0.00;0.62;3.83;1.93;;;26.70;24.70;;;;;;2244195;61;20528;-62
2022/05/23 06:58:05;0.00;0.00;0.62;0.00;0.00;0.62;2.30;1.77;;;26.80;24.80;;;;;;2248800;61;20372;-59
2022/05/23 07:00:50;0.00;0.00;0.62;0.00;0.00;0.62;3.20;1.97;;;26.70;24.70;;;;;;2248955;61;20364;-59
2022/05/23 07:03:38;0.00;0.00;0.62;0.00;0.00;0.62;3.00;1.97;;;26.70;24.70;;;;;;2246186;61;20897;-60
2022/05/23 07:12:50;0.00;0.00;0.62;0.00;0.00;0.62;2.20;2.00;;;26.70;24.70;;;;;;2250241;61;20416;-65
2022/05/23 07:15:46;0.00;0.00;0.62;0.00;0.00;0.62;4.27;2.70;;;26.60;24.70;;;;;;2251306;61;20403;-66
2022/05/23 07:18:33;0.00;0.00;0.62;0.00;0.00;0.62;3.50;2.50;;;26.60;24.70;;;;;;2244318;61;20404;-62
2022/05/23 07:21:19;0.00;0.00;0.62;0.00;0.00;0.62;5.50;2.80;;;26.70;24.80;;;;;;2248824;61;20364;-62
2022/05/23 07:24:18;0.00;0.00;0.62;0.00;0.00;0.62;4.63;3.00;;;26.60;24.70;;;;;;2249061;61;20420;-61
2022/05/23 07:27:12;0.00;0.00;0.62;0.00;0.00;0.62;3.53;2.10;;;26.60;24.70;;;;;;2249357;61;20392;-65
2022/05/23 07:29:57;0.00;0.00;0.62;0.00;0.00;0.62;8.73;2.60;;;26.60;24.70;;;;;;2246305;61;20435;-66
2022/05/23 07:32:44;0.00;0.00;0.62;0.00;0.00;0.62;2.97;2.30;;;26.50;24.70;;;;;;2243739;61;20380;-65
2022/05/23 07:35:33;0.00;0.00;0.62;0.00;0.00;0.62;5.47;2.53;;;26.50;24.80;;;;;;2243941;61;20529;-64
2022/05/23 07:38:19;0.00;0.00;0.62;0.00;0.00;0.62;6.00;3.20;;;26.50;24.80;;;;;;2249016;61;20373;-66
2022/05/23 07:41:05;0.00;0.00;0.62;0.00;0.00;0.62;4.43;2.37;;;26.50;24.80;;;;;;2246450;61;20846;-67
2022/05/23 07:43:57;0.00;0.00;0.62;0.00;0.00;0.62;3.30;2.90;;;26.60;24.90;;;;;;2244710;61;20412;-60
2022/05/23 07:46:43;0.00;0.00;0.62;0.00;0.00;0.62;4.00;2.33;;;26.60;24.90;;;;;;2249239;61;20408;-64
2022/05/23 07:49:30;0.00;0.00;0.62;0.00;0.00;0.62;4.07;2.80;;;26.60;24.90;;;;;;2249580;61;20465;-65
2022/05/23 07:52:23;0.00;0.00;0.62;0.00;0.00;0.62;3.13;2.37;;;26.60;25.00;;;;;;2242982;61;20913;-66
2022/05/23 08:01:21;0.00;0.00;0.62;0.00;0.00;0.62;3.27;2.40;;;26.60;25.00;;;;;;2251375;61;20380;-64
2022/05/23 08:04:16;0.00;0.00;0.62;0.00;0.00;0.62;3.27;2.90;;;26.60;25.00;;;;;;2244097;61;20437;-65
2022/05/23 08:07:04;0.00;0.00;0.62;0.00;0.00;0.62;5.80;2.60;;;26.60;25.00;;;;;;2250306;61;20419;-62
2022/05/23 08:09:49;0.00;0.00;0.62;0.00;0.00;0.62;3.80;2.70;;;26.60;25.00;;;;;;2247981;61;20391;-63
2022/05/23 08:12:34;0.00;0.00;0.62;0.00;0.00;0.62;3.77;2.23;;;26.60;25.00;;;;;;2249799;61;20407;-63
2022/05/23 08:15:20;0.00;0.00;0.62;0.00;0.00;0.62;4.30;2.30;;;26.60;25.00;;;;;;2247369;61;20423;-55
2022/05/23 08:18:11;0.00;0.00;0.62;0.00;0.00;0.62;3.30;2.30;;;26.60;25.00;;;;;;2248122;61;20415;-56
2022/05/23 08:21:03;0.00;0.00;0.62;0.00;0.00;0.62;3.50;2.83;;;26.70;25.00;;;;;;2246505;61;20396;-58
2022/05/23 08:23:54;0.00;0.00;0.62;0.00;0.00;0.62;4.33;2.10;;;26.70;25.10;;;;;;2247610;61;20937;-53
2022/05/23 08:26:43;0.00;0.00;0.62;0.00;0.00;0.62;2.47;2.13;;;26.70;25.00;;;;;;2247422;61;20501;-53
2022/05/23 08:29:28;0.00;0.00;0.62;0.00;0.00;0.62;2.60;2.33;;;26.70;25.10;;;;;;2252793;61;20391;-54
2022/05/23 08:32:23;0.00;0.00;0.62;0.00;0.00;0.62;2.70;2.00;;;26.70;25.10;;;;;;2248891;61;20372;-58
2022/05/23 08:35:24;0.00;0.00;0.62;0.00;0.00;0.62;4.20;2.60;;;26.70;25.10;;;;;;2249196;61;20383;-61
2022/05/23 08:38:14;0.00;0.00;0.62;0.00;0.00;0.62;3.63;2.53;;;26.80;25.20;;;;;;2248912;61;20372;-62
2022/05/23 08:41:28;0.00;0.00;0.62;0.00;0.00;0.62;4.13;2.80;;;26.80;25.20;;;;;;2249285;61;20410;-63
2022/05/23 08:44:36;0.00;0.00;0.62;0.00;0.00;0.62;3.40;2.70;;;26.80;25.20;;;;;;2247608;61;20398;-63
2022/05/23 08:47:33;0.00;0.00;0.62;0.00;0.00;0.62;2.93;2.63;;;26.80;25.20;;;;;;2251206;61;20371;-64
2022/05/23 08:50:28;0.00;0.00;0.62;0.00;0.00;0.62;6.53;2.57;;;26.80;25.20;;;;;;2247455;61;20798;-59
2022/05/23 08:53:19;0.00;0.00;0.62;0.00;0.00;0.62;5.27;2.40;;;26.80;25.30;;;;;;2248160;61;21041;-63
2022/05/23 08:56:37;0.00;0.00;0.62;0.00;0.00;0.62;2.87;2.30;;;26.80;25.30;;;;;;2241482;61;20996;-68
2022/05/23 08:59:42;0.00;0.00;0.62;0.00;0.00;0.62;3.17;2.13;;;26.90;25.40;;;;;;2248187;61;20367;-60
2022/05/23 09:02:41;0.00;0.00;0.62;0.00;0.00;0.62;4.07;2.63;;;26.90;25.40;;;;;;2253399;61;20415;-63
2022/05/23 09:05:52;0.00;0.00;0.62;0.00;0.00;0.62;2.90;2.20;;;26.90;25.40;;;;;;2247975;61;20383;-60
2022/05/23 09:08:49;0.00;0.00;0.62;0.00;0.00;0.62;3.40;2.57;;;26.90;25.40;;;;;;2248584;61;20696;-57
2022/05/23 09:11:36;0.00;0.00;0.62;0.00;0.00;0.62;3.93;2.53;;;26.90;25.40;;;;;;2248101;61;20456;-62
2022/05/23 09:14:23;0.00;0.00;0.62;0.00;0.00;0.62;4.17;2.10;;;26.90;25.40;;;;;;2248420;61;20908;-61
2022/05/23 09:17:18;0.00;0.00;0.62;0.00;0.00;0.62;3.80;2.60;;;26.90;25.40;;;;;;2248862;61;20391;-60
2022/05/23 09:20:11;0.00;0.00;0.62;0.00;0.00;0.62;3.07;2.57;;;27.00;25.40;;;;;;2248026;61;20368;-65
2022/05/23 09:23:02;0.00;0.00;0.62;0.00;0.00;0.62;3.57;2.47;;;27.00;25.40;;;;;;2248357;61;20375;-64
2022/05/23 09:25:50;0.00;0.00;0.62;0.00;0.00;0.62;4.10;2.30;;;27.00;25.40;;;;;;2248348;61;20472;-66
2022/05/23 09:28:38;0.00;0.00;0.62;0.00;0.00;0.62;4.50;2.50;;;27.00;25.40;;;;;;2248568;61;20387;-61
2022/05/23 09:31:33;0.00;0.00;0.62;0.00;0.00;0.62;3.03;2.50;;;27.00;25.40;;;;;;2247992;61;20372;-59
2022/05/23 09:34:30;0.00;0.00;0.62;0.00;0.00;0.62;2.87;2.23;;;27.00;25.40;;;;;;2248306;61;20423;-60
2022/05/23 09:37:21;0.00;0.00;0.62;0.00;0.00;0.62;5.10;3.30;;;27.00;25.50;;;;;;2244662;61;20396;-59
2022/05/23 09:40:12;0.00;0.00;0.62;0.00;0.00;0.62;4.00;3.00;;;27.00;25.50;;;;;;2245084;61;20426;-59
2022/05/23 09:49:23;0.00;0.00;0.62;0.00;0.00;0.62;4.80;3.47;;;27.00;25.60;;;;;;2245737;61;20434;-55
2022/05/23 09:52:19;0.00;0.00;0.62;0.00;0.00;0.62;22.60;6.17;;;27.00;25.80;;;;;;2247856;61;20504;-62
2022/05/23 09:55:08;0.00;0.00;0.62;0.00;0.00;0.62;15.63;3.53;;;27.10;25.80;;;;;;2247775;61;20367;-59
2022/05/23 09:57:56;0.00;0.00;0.62;0.00;0.00;0.62;5.40;4.20;;;27.10;25.90;;;;;;2248181;61;20453;-58
2022/05/23 10:01:02;0.00;0.00;0.62;0.00;0.00;0.62;10.57;3.27;;;27.10;26.00;;;;;;2643452;46;20766;-63
2022/05/23 10:03:51;0.00;0.00;0.62;0.00;0.00;0.62;5.30;3.20;;;27.10;26.00;;;;;;2244332;61;20819;-58
2022/05/23 10:06:42;0.00;0.00;0.62;0.00;0.00;0.62;4.37;3.43;;;27.10;26.00;;;;;;2244275;61;20388;-59
2022/05/23 10:09:33;0.00;0.00;0.62;0.00;0.00;0.62;4.93;3.33;;;27.10;26.10;;;;;;2244790;61;20389;-56
2022/05/23 10:12:38;0.00;0.00;0.62;0.00;0.00;0.62;3.40;3.10;;;27.10;26.20;;;;;;2243349;61;20631;-58
2022/05/23 10:15:28;0.00;0.00;0.62;0.00;0.00;0.62;6.57;3.10;;;27.20;26.30;;;;;;2244009;61;20451;-58
2022/05/23 10:18:20;0.00;0.00;0.62;0.00;0.00;0.62;5.73;3.30;;;27.20;26.50;;;;;;2243866;61;20858;-63
2022/05/23 10:21:26;0.00;0.00;0.62;0.00;0.00;0.62;4.23;3.13;;;27.20;26.40;;;;;;2243681;61;20364;-65
2022/05/23 10:24:26;0.00;0.00;0.62;0.00;0.00;0.62;8.60;3.80;;;27.20;26.40;;;;;;2244544;61;20368;-65
2022/05/23 10:27:15;0.00;0.00;0.62;0.00;0.00;0.62;6.20;3.20;;;27.20;26.50;;;;;;2243508;61;20397;-67
2022/05/23 10:30:05;0.00;0.00;0.62;0.00;0.00;0.62;3.80;3.33;;;27.20;26.50;;;;;;2244856;61;20488;-68
2022/05/23 10:32:58;0.00;0.00;0.62;0.00;0.00;0.62;4.67;3.10;;;27.30;26.50;;;;;;2243097;61;20415;-66
2022/05/23 10:35:56;0.00;0.00;0.62;0.00;0.00;0.62;3.60;2.90;;;27.20;26.50;;;;;;2243972;61;20831;-68
2022/05/23 10:42:07;0.00;0.00;0.62;0.00;0.00;0.62;3.67;3.10;;;27.30;26.50;;;;;;2239400;61;20401;-64
2022/05/23 10:45:20;0.00;0.00;0.62;0.00;0.00;0.62;3.00;2.43;;;27.30;26.50;;;;;;2240542;61;20381;-65
2022/05/23 10:48:25;0.00;0.00;0.62;0.00;0.00;0.62;4.20;3.33;;;27.30;26.40;;;;;;2240371;61;20405;-65
2022/05/23 10:51:23;0.00;0.00;0.62;0.00;0.00;0.62;4.10;2.77;;;27.30;26.40;;;;;;2239753;61;20514;-65
2022/05/23 10:54:27;0.00;0.00;0.62;0.00;0.00;0.62;3.43;3.07;;;27.30;26.90;;;;;;2240353;61;20366;-62
2022/05/23 10:57:29;0.00;0.00;0.62;0.00;0.00;0.62;3.30;3.00;;;27.30;26.30;;;;;;2239111;61;20950;-64
2022/05/23 11:00:18;0.00;0.00;0.62;0.00;0.00;0.62;6.30;3.60;;;27.40;26.30;;;;;;2239546;61;20384;-67
2022/05/23 11:03:12;0.00;0.00;0.62;0.00;0.00;0.62;4.20;3.30;;;27.40;26.30;;;;;;2242525;61;20385;-66
2022/05/23 11:06:07;0.00;0.00;0.62;0.00;0.00;0.62;6.00;2.80;;;27.40;26.30;;;;;;2239893;61;20477;-69
2022/05/23 11:09:13;0.00;0.00;0.62;0.00;0.00;0.62;3.53;3.10;;;27.40;26.40;;;;;;2245129;61;20464;-70
2022/05/23 11:12:14;0.00;0.00;0.62;0.00;0.00;0.62;4.70;2.80;;;27.40;26.40;;;;;;2239582;61;20369;-61
2022/05/23 11:15:21;0.00;0.00;0.62;0.00;0.00;0.62;4.10;2.70;;;27.40;26.40;;;;;;2239850;61;20930;-63
2022/05/23 11:18:21;0.00;0.00;0.62;0.00;0.00;0.62;4.40;3.40;;;27.50;26.30;;;;;;2239692;61;20389;-58
2022/05/23 11:21:09;0.00;0.00;0.62;0.00;0.00;0.62;4.20;3.50;;;27.50;26.30;;;;;;2239629;61;20466;-68
2022/05/23 11:24:04;0.00;0.00;0.62;0.00;0.00;0.62;5.00;2.87;;;27.50;26.30;;;;;;2240104;61;20428;-66
2022/05/23 11:26:54;0.00;0.00;0.62;0.00;0.00;0.62;5.97;2.93;;;27.50;26.30;;;;;;2240202;61;20485;-66
2022/05/23 11:35:48;0.00;0.00;0.62;0.00;0.00;0.62;4.70;2.90;;;27.60;26.30;;;;;;2246407;61;20533;-67
2022/05/23 11:38:33;0.00;0.00;0.62;0.00;0.00;0.62;3.63;2.30;;;27.60;26.30;;;;;;2248432;61;20363;-69
2022/05/23 11:41:34;0.00;0.00;0.62;0.00;0.00;0.62;5.00;2.73;;;27.60;26.30;;;;;;2247578;61;20414;-66
2022/05/23 11:44:56;0.00;0.00;0.62;0.00;0.00;0.62;3.43;2.70;;;27.60;26.40;;;;;;2247963;61;20371;-65
2022/05/23 11:47:48;0.00;0.00;0.62;0.00;0.00;0.62;4.17;2.47;;;27.70;26.40;;;;;;2248072;61;20367;-64
2022/05/23 11:50:50;0.00;0.00;0.62;0.00;0.00;0.62;2.33;1.90;;;27.70;26.40;;;;;;2247848;61;20924;-64
2022/05/23 11:53:37;0.00;0.00;0.62;0.00;0.00;0.62;3.67;2.30;;;27.70;26.40;;;;;;2248130;61;20395;-65
2022/05/23 11:56:37;0.00;0.00;0.62;0.00;0.00;0.62;3.10;2.77;;;27.70;26.40;;;;;;2247855;61;20438;-66
2022/05/23 12:00:03;0.00;0.00;0.62;0.00;0.00;0.62;4.77;3.07;;;27.80;26.40;;;;;;2248175;61;20364;-65
2022/05/23 12:03:13;0.00;0.00;0.62;0.00;0.00;0.62;6.10;2.60;;;27.80;26.40;;;;;;2247580;61;20415;-65
2022/05/23 12:06:17;0.00;0.00;0.62;0.00;0.00;0.62;5.50;2.30;;;27.80;26.40;;;;;;2472423;53;21015;-65
2022/05/23 12:09:06;0.00;0.00;0.62;0.00;0.00;0.62;3.50;2.73;;;27.80;26.40;;;;;;2240263;61;20473;-65
2022/05/23 12:12:13;0.00;0.00;0.62;0.00;0.00;0.62;2.53;2.10;;;27.80;26.40;;;;;;2239622;61;20425;-66